Time;durP1;ratioP1;P1;durP2;ratioP2;P2;SDS_P1;SDS_P2;PMS_P1;PMS_P2;Temp;Humidity;BMP_temperature;BMP_pressure;BME280_temperature;BME280_humidity;BME280_pressure;Samples;Min_cycle;Max_cycle;Signal;HPM_P1;HPM_P2
2023/12/01 00:00:31;;;;;;;6.83;6.13;;;;;;;;;;5039893;28;20206;-89
2023/12/01 00:02:58;;;;;;;7.50;6.33;;;;;;;;;;5031921;28;20214;-90
2023/12/01 00:05:25;;;;;;;7.87;6.33;;;;;;;;;;5029376;28;20230;-89
2023/12/01 00:07:52;;;;;;;6.43;5.80;;;;;;;;;;5043164;28;20211;-90
2023/12/01 00:10:18;;;;;;;6.27;5.67;;;;;;;;;;5029684;28;20238;-89
2023/12/01 00:12:45;;;;;;;7.03;6.33;;;;;;;;;;5029597;27;20206;-89
2023/12/01 00:15:13;;;;;;;8.07;5.93;;;;;;;;;;5029216;28;20214;-89
2023/12/01 00:17:40;;;;;;;9.13;5.67;;;;;;;;;;5046996;28;20209;-88
2023/12/01 00:20:08;;;;;;;6.70;6.10;;;;;;;;;;5049186;27;20209;-90
2023/12/01 00:22:35;;;;;;;6.83;5.70;;;;;;;;;;5048077;28;20214;-89
2023/12/01 00:25:02;;;;;;;6.87;6.13;;;;;;;;;;5048990;28;20428;-89
2023/12/01 00:27:29;;;;;;;6.77;5.87;;;;;;;;;;5035754;28;20296;-89
2023/12/01 00:29:56;;;;;;;7.83;6.30;;;;;;;;;;5048905;28;20210;-89
2023/12/01 00:32:24;;;;;;;6.20;5.60;;;;;;;;;;5035640;28;20221;-89
2023/12/01 00:34:51;;;;;;;6.13;5.20;;;;;;;;;;5048749;28;20202;-89
2023/12/01 00:37:17;;;;;;;5.33;4.53;;;;;;;;;;5035077;28;20217;-89
2023/12/01 00:39:44;;;;;;;6.50;5.03;;;;;;;;;;5036218;28;20232;-89
2023/12/01 00:42:13;;;;;;;7.67;5.50;;;;;;;;;;5048477;28;20212;-89
2023/12/01 00:44:40;;;;;;;5.83;5.27;;;;;;;;;;5048939;28;20226;-90
2023/12/01 00:47:07;;;;;;;6.13;5.23;;;;;;;;;;5042147;28;20207;-89
2023/12/01 00:49:35;;;;;;;7.67;5.30;;;;;;;;;;5028730;28;20211;-89
2023/12/01 00:52:04;;;;;;;6.97;5.87;;;;;;;;;;5022869;28;20213;-89
2023/12/01 00:54:31;;;;;;;6.90;6.20;;;;;;;;;;5034958;27;20354;-89
2023/12/01 00:56:58;;;;;;;7.50;5.90;;;;;;;;;;5048337;28;20210;-89
2023/12/01 00:59:25;;;;;;;9.07;6.23;;;;;;;;;;5034737;27;20203;-89
2023/12/01 01:01:52;;;;;;;6.43;5.07;;;;;;;;;;5041323;28;20211;-89
2023/12/01 01:04:19;;;;;;;6.20;5.50;;;;;;;;;;5041769;28;20247;-89
2023/12/01 01:06:47;;;;;;;6.50;5.07;;;;;;;;;;5036851;28;20210;-89
2023/12/01 01:09:14;;;;;;;10.70;6.50;;;;;;;;;;5048894;28;20210;-89
2023/12/01 01:11:41;;;;;;;5.17;4.73;;;;;;;;;;5040917;28;20249;-90
2023/12/01 01:14:08;;;;;;;5.43;4.43;;;;;;;;;;5051549;28;20205;-89
2023/12/01 01:16:34;;;;;;;7.70;5.50;;;;;;;;;;5052173;27;20278;-89
2023/12/01 01:19:01;;;;;;;7.63;5.57;;;;;;;;;;5049463;28;20206;-89
2023/12/01 01:21:28;;;;;;;5.10;4.63;;;;;;;;;;5031934;28;20211;-89
2023/12/01 01:24:01;;;;;;;6.07;5.43;;;;;;;;;;5031669;28;20230;-89
2023/12/01 01:26:28;;;;;;;7.90;7.10;;;;;;;;;;5031783;27;20211;-89
2023/12/01 01:28:54;;;;;;;8.37;5.77;;;;;;;;;;5044435;28;20215;-89
2023/12/01 01:31:21;;;;;;;6.00;5.43;;;;;;;;;;5041516;28;20206;-87
2023/12/01 01:33:48;;;;;;;5.93;5.20;;;;;;;;;;5037556;28;20213;-89
2023/12/01 01:36:15;;;;;;;6.67;5.40;;;;;;;;;;5040794;28;20206;-89
2023/12/01 01:38:42;;;;;;;6.60;5.93;;;;;;;;;;5048863;28;20209;-89
2023/12/01 01:41:10;;;;;;;5.87;5.27;;;;;;;;;;5040472;28;20211;-89
2023/12/01 01:43:37;;;;;;;6.77;5.33;;;;;;;;;;5031363;28;20214;-89
2023/12/01 01:46:06;;;;;;;5.67;5.10;;;;;;;;;;5042295;28;20210;-89
2023/12/01 01:48:33;;;;;;;4.90;4.40;;;;;;;;;;5046238;28;20211;-89
2023/12/01 01:51:00;;;;;;;5.37;4.87;;;;;;;;;;5031142;28;20209;-89
2023/12/01 01:53:28;;;;;;;5.57;4.53;;;;;;;;;;5044788;28;20210;-89
2023/12/01 01:55:56;;;;;;;6.70;4.53;;;;;;;;;;5042657;28;20206;-89
2023/12/01 01:58:25;;;;;;;5.23;4.73;;;;;;;;;;5045545;28;20645;-89
2023/12/01 02:00:52;;;;;;;6.73;4.83;;;;;;;;;;5043774;28;20237;-89
2023/12/01 02:03:20;;;;;;;5.27;4.77;;;;;;;;;;5044324;28;20210;-89
2023/12/01 02:05:47;;;;;;;6.70;4.50;;;;;;;;;;5043909;28;20294;-88
2023/12/01 02:08:22;;;;;;;7.10;5.23;;;;;;;;;;5037316;28;20214;-89
2023/12/01 02:10:49;;;;;;;8.67;6.33;;;;;;;;;;5036060;28;20609;-89
2023/12/01 02:13:16;;;;;;;6.77;5.77;;;;;;;;;;5038971;28;20672;-89
2023/12/01 02:15:44;;;;;;;7.07;5.47;;;;;;;;;;5049114;28;20631;-89
2023/12/01 02:18:20;;;;;;;6.57;5.33;;;;;;;;;;5031116;28;20234;-89
2023/12/01 02:20:47;;;;;;;7.13;6.03;;;;;;;;;;5044194;28;20214;-90
2023/12/01 02:23:15;;;;;;;5.97;5.00;;;;;;;;;;5041387;28;20206;-89
2023/12/01 02:25:42;;;;;;;5.40;4.90;;;;;;;;;;5050312;28;20243;-89
2023/12/01 02:28:10;;;;;;;5.30;4.50;;;;;;;;;;5039979;28;20206;-90
2023/12/01 02:30:38;;;;;;;11.30;7.37;;;;;;;;;;5035527;28;20214;-90
2023/12/01 02:33:05;;;;;;;9.63;6.53;;;;;;;;;;5038851;28;20225;-89
2023/12/01 02:35:32;;;;;;;6.93;5.40;;;;;;;;;;5049304;28;20210;-90
2023/12/01 02:38:01;;;;;;;5.00;4.53;;;;;;;;;;5050689;28;20210;-90
2023/12/01 02:40:30;;;;;;;9.10;6.07;;;;;;;;;;5037204;28;20216;-90
2023/12/01 02:42:56;;;;;;;8.80;5.63;;;;;;;;;;5050739;28;20209;-90
2023/12/01 02:45:23;;;;;;;6.73;4.80;;;;;;;;;;5017376;28;20226;-89
2023/12/01 02:47:50;;;;;;;4.90;4.50;;;;;;;;;;5043682;28;20206;-89
2023/12/01 02:50:18;;;;;;;6.43;5.07;;;;;;;;;;5050620;27;20210;-89
2023/12/01 02:52:44;;;;;;;7.27;5.17;;;;;;;;;;5050111;28;20209;-87
2023/12/01 02:55:12;;;;;;;7.23;5.97;;;;;;;;;;5042167;28;20213;-89
2023/12/01 02:57:43;;;;;;;7.43;5.77;;;;;;;;;;5044761;28;20656;-89
2023/12/01 03:00:13;;;;;;;6.57;5.50;;;;;;;;;;5041583;28;20217;-89
2023/12/01 03:02:40;;;;;;;7.00;5.40;;;;;;;;;;5029857;28;20210;-89
2023/12/01 03:05:08;;;;;;;6.73;5.33;;;;;;;;;;5030222;28;20223;-89
2023/12/01 03:07:35;;;;;;;5.20;4.70;;;;;;;;;;5030082;28;20217;-89
2023/12/01 03:10:03;;;;;;;6.87;6.17;;;;;;;;;;5038217;28;20595;-89
2023/12/01 03:12:30;;;;;;;7.77;5.60;;;;;;;;;;5047312;28;20213;-89
2023/12/01 03:14:59;;;;;;;7.67;5.87;;;;;;;;;;5038834;28;20585;-89
2023/12/01 03:17:26;;;;;;;18.87;11.53;;;;;;;;;;5049909;28;20240;-89
2023/12/01 03:19:53;;;;;;;18.33;12.63;;;;;;;;;;5050004;28;20649;-89
2023/12/01 03:22:20;;;;;;;9.53;8.53;;;;;;;;;;5033859;28;20214;-89
2023/12/01 03:24:47;;;;;;;8.03;6.67;;;;;;;;;;5039540;28;20225;-89
2023/12/01 03:27:15;;;;;;;10.60;7.53;;;;;;;;;;5036328;28;20213;-88
2023/12/01 03:29:42;;;;;;;15.27;9.90;;;;;;;;;;5039119;28;20256;-88
2023/12/01 03:32:10;;;;;;;13.80;9.57;;;;;;;;;;5028872;28;20210;-88
2023/12/01 03:34:37;;;;;;;13.10;9.53;;;;;;;;;;5040531;28;20230;-88
2023/12/01 03:37:04;;;;;;;9.53;8.43;;;;;;;;;;5031823;28;20209;-88
2023/12/01 03:39:31;;;;;;;9.77;8.40;;;;;;;;;;5040701;28;20229;-88
2023/12/01 03:41:58;;;;;;;11.10;8.30;;;;;;;;;;5049020;28;20561;-88
2023/12/01 03:44:25;;;;;;;11.40;6.63;;;;;;;;;;5038170;28;20210;-88
2023/12/01 03:46:52;;;;;;;10.13;7.97;;;;;;;;;;5047141;28;20213;-89
2023/12/01 03:49:20;;;;;;;9.07;6.97;;;;;;;;;;5048884;28;20653;-88
2023/12/01 03:51:47;;;;;;;7.00;5.93;;;;;;;;;;5035753;28;20218;-88
2023/12/01 03:54:14;;;;;;;8.63;7.67;;;;;;;;;;5037180;28;20210;-88
2023/12/01 03:56:41;;;;;;;8.17;7.37;;;;;;;;;;5047379;28;20194;-88
2023/12/01 03:59:10;;;;;;;9.57;8.57;;;;;;;;;;5037343;28;20215;-88
2023/12/01 04:01:39;;;;;;;11.30;9.10;;;;;;;;;;5042296;28;20211;-88
2023/12/01 04:04:10;;;;;;;10.33;6.53;;;;;;;;;;5028778;28;20289;-87
2023/12/01 04:06:41;;;;;;;10.67;6.33;;;;;;;;;;5042380;28;20237;-88
2023/12/01 04:09:09;;;;;;;7.53;6.83;;;;;;;;;;5041877;28;20231;-88
2023/12/01 04:11:37;;;;;;;5.03;4.63;;;;;;;;;;5029164;28;20234;-88
2023/12/01 04:14:05;;;;;;;5.57;5.07;;;;;;;;;;5030303;28;20655;-88
2023/12/01 04:16:32;;;;;;;6.00;5.40;;;;;;;;;;5040225;28;20210;-88
2023/12/01 04:19:00;;;;;;;6.93;5.43;;;;;;;;;;5042100;28;20747;-91
2023/12/01 04:21:27;;;;;;;6.57;5.87;;;;;;;;;;5033471;27;20989;-84
2023/12/01 04:23:55;;;;;;;6.03;5.43;;;;;;;;;;5043410;28;20205;-89
2023/12/01 04:26:22;;;;;;;8.60;5.43;;;;;;;;;;5038194;28;20232;-89
2023/12/01 04:28:49;;;;;;;6.40;5.80;;;;;;;;;;5102669;28;20205;-84
2023/12/01 04:31:16;;;;;;;6.83;5.17;;;;;;;;;;5047843;28;20296;-84
2023/12/01 04:33:43;;;;;;;10.77;6.00;;;;;;;;;;5043246;28;20214;-85
2023/12/01 04:36:11;;;;;;;5.47;4.97;;;;;;;;;;5035518;28;20198;-84
2023/12/01 04:38:38;;;;;;;6.10;5.50;;;;;;;;;;5029925;28;20222;-85
2023/12/01 04:41:09;;;;;;;7.87;5.30;;;;;;;;;;5033637;28;20286;-84
2023/12/01 04:43:38;;;;;;;21.03;11.63;;;;;;;;;;5025979;28;20199;-84
2023/12/01 04:46:07;;;;;;;96.00;54.27;;;;;;;;;;5023411;28;20233;-84
2023/12/01 04:48:34;;;;;;;77.20;42.07;;;;;;;;;;5037928;28;20207;-83
2023/12/01 04:51:00;;;;;;;53.63;32.87;;;;;;;;;;5031183;28;20210;-83
2023/12/01 04:53:27;;;;;;;32.93;20.13;;;;;;;;;;5044534;28;20671;-82
2023/12/01 04:55:54;;;;;;;23.13;15.30;;;;;;;;;;5040085;28;20204;-83
2023/12/01 04:58:22;;;;;;;33.07;22.40;;;;;;;;;;5027430;28;20201;-84
2023/12/01 05:00:49;;;;;;;25.50;19.93;;;;;;;;;;5045074;28;20207;-83
2023/12/01 05:03:16;;;;;;;43.20;35.47;;;;;;;;;;5048816;28;20213;-83
2023/12/01 05:05:43;;;;;;;37.77;25.37;;;;;;;;;;5046830;28;20654;-83
2023/12/01 05:08:10;;;;;;;24.87;19.37;;;;;;;;;;5030797;28;20589;-83
2023/12/01 05:10:44;;;;;;;23.00;15.47;;;;;;;;;;5043169;28;20294;-83
2023/12/01 05:13:11;;;;;;;16.67;12.87;;;;;;;;;;5018962;28;20206;-83
2023/12/01 05:15:40;;;;;;;12.07;10.87;;;;;;;;;;5044090;28;20253;-84
2023/12/01 05:18:10;;;;;;;41.30;28.07;;;;;;;;;;5030565;28;20205;-86
2023/12/01 05:20:37;;;;;;;10.60;9.37;;;;;;;;;;5033032;28;20291;-87
2023/12/01 05:23:05;;;;;;;8.83;7.73;;;;;;;;;;5031857;28;20684;-86
2023/12/01 05:25:33;;;;;;;7.30;6.53;;;;;;;;;;5046217;28;20317;-84
2023/12/01 05:28:01;;;;;;;5.30;4.80;;;;;;;;;;5037127;28;20210;-84
2023/12/01 05:30:29;;;;;;;10.30;8.70;;;;;;;;;;5036375;28;20207;-84
2023/12/01 05:32:59;;;;;;;17.37;14.73;;;;;;;;;;5043294;28;20215;-84
2023/12/01 05:35:26;;;;;;;18.90;16.77;;;;;;;;;;5030588;28;20233;-87
2023/12/01 05:37:53;;;;;;;22.00;19.00;;;;;;;;;;5031249;28;20284;-88
2023/12/01 05:40:21;;;;;;;21.43;18.20;;;;;;;;;;5044940;28;20215;-88
2023/12/01 05:42:49;;;;;;;15.53;13.90;;;;;;;;;;5031295;28;20659;-89
2023/12/01 05:45:16;;;;;;;12.13;10.73;;;;;;;;;;5035414;28;20222;-88
2023/12/01 05:47:44;;;;;;;12.87;9.80;;;;;;;;;;5050633;28;20202;-88
2023/12/01 05:50:16;;;;;;;11.33;9.90;;;;;;;;;;5045410;28;20206;-88
2023/12/01 05:52:45;;;;;;;14.33;10.73;;;;;;;;;;5043580;28;20217;-88
2023/12/01 05:55:15;;;;;;;10.17;9.17;;;;;;;;;;5044537;28;20210;-88
2023/12/01 05:57:46;;;;;;;13.13;10.13;;;;;;;;;;5043935;28;20877;-87
2023/12/01 06:00:15;;;;;;;11.80;10.53;;;;;;;;;;5042584;28;20225;-87
2023/12/01 06:02:41;;;;;;;12.00;10.33;;;;;;;;;;5043413;28;20766;-87
2023/12/01 06:05:10;;;;;;;13.70;10.83;;;;;;;;;;5037690;28;20237;-87
2023/12/01 06:07:41;;;;;;;14.17;12.63;;;;;;;;;;5037232;28;20210;-87
2023/12/01 06:10:09;;;;;;;15.00;11.93;;;;;;;;;;5041106;28;20206;-87
2023/12/01 06:12:37;;;;;;;15.07;13.50;;;;;;;;;;5030944;28;20618;-87
2023/12/01 06:15:06;;;;;;;20.13;16.80;;;;;;;;;;5030575;28;20209;-87
2023/12/01 06:17:33;;;;;;;17.53;15.53;;;;;;;;;;5046492;28;20752;-87
2023/12/01 06:19:59;;;;;;;14.17;11.73;;;;;;;;;;5040110;28;20219;-87
2023/12/01 06:22:26;;;;;;;14.87;11.70;;;;;;;;;;5029775;28;20677;-87
2023/12/01 06:24:54;;;;;;;9.53;8.53;;;;;;;;;;5030081;28;20210;-88
2023/12/01 06:27:22;;;;;;;8.57;7.77;;;;;;;;;;5029829;28;20231;-88
2023/12/01 06:29:50;;;;;;;11.73;10.63;;;;;;;;;;5030084;28;20207;-87
2023/12/01 06:32:16;;;;;;;43.67;30.10;;;;;;;;;;5043157;28;21337;-87
2023/12/01 06:34:43;;;;;;;36.67;29.50;;;;;;;;;;5041076;28;20205;-87
2023/12/01 06:37:10;;;;;;;22.80;20.00;;;;;;;;;;5049511;28;20206;-87
2023/12/01 06:39:38;;;;;;;17.93;16.03;;;;;;;;;;5049718;28;20206;-88
2023/12/01 06:42:06;;;;;;;16.77;13.50;;;;;;;;;;5049687;28;20205;-87
2023/12/01 06:44:34;;;;;;;13.57;11.97;;;;;;;;;;5049787;28;20208;-87
2023/12/01 06:47:02;;;;;;;12.17;9.63;;;;;;;;;;5049561;28;20230;-87
2023/12/01 06:49:29;;;;;;;9.27;8.37;;;;;;;;;;5049787;28;20266;-87
2023/12/01 06:51:57;;;;;;;7.70;6.83;;;;;;;;;;5049584;28;20206;-87
2023/12/01 06:54:25;;;;;;;9.57;8.60;;;;;;;;;;5049692;28;20209;-88
2023/12/01 06:56:52;;;;;;;15.17;13.40;;;;;;;;;;5049970;28;20247;-88
2023/12/01 06:59:21;;;;;;;14.20;12.70;;;;;;;;;;5049332;28;20210;-87
2023/12/01 07:01:48;;;;;;;19.73;17.73;;;;;;;;;;5037185;28;20202;-87
2023/12/01 07:04:14;;;;;;;16.83;15.13;;;;;;;;;;5049679;28;20194;-87
2023/12/01 07:06:46;;;;;;;16.07;14.13;;;;;;;;;;5048862;28;20232;-88
2023/12/01 07:09:17;;;;;;;17.07;14.30;;;;;;;;;;5048633;28;20277;-87
2023/12/01 07:11:44;;;;;;;21.30;15.70;;;;;;;;;;5049295;28;20230;-87
2023/12/01 07:14:12;;;;;;;23.20;17.60;;;;;;;;;;5035429;28;20211;-87
2023/12/01 07:16:41;;;;;;;23.07;16.50;;;;;;;;;;5049648;28;20684;-87
2023/12/01 07:19:08;;;;;;;14.17;11.40;;;;;;;;;;5046230;28;20203;-88
2023/12/01 07:21:35;;;;;;;21.03;15.50;;;;;;;;;;5029611;28;20214;-88
2023/12/01 07:24:04;;;;;;;16.70;13.37;;;;;;;;;;5042719;28;20199;-88
2023/12/01 07:26:33;;;;;;;17.80;14.47;;;;;;;;;;5040372;28;20772;-88
2023/12/01 07:29:00;;;;;;;16.47;13.70;;;;;;;;;;5035432;28;20206;-87
2023/12/01 07:31:27;;;;;;;15.30;12.60;;;;;;;;;;5037937;28;20274;-88
2023/12/01 07:33:56;;;;;;;17.97;16.03;;;;;;;;;;5047543;28;20213;-88
2023/12/01 07:36:22;;;;;;;17.83;15.30;;;;;;;;;;5049540;28;20213;-88
2023/12/01 07:38:49;;;;;;;16.80;15.00;;;;;;;;;;5048847;28;20198;-88
2023/12/01 07:41:16;;;;;;;14.63;12.97;;;;;;;;;;5037297;28;20566;-88
2023/12/01 07:43:43;;;;;;;11.13;9.23;;;;;;;;;;5042561;28;20214;-88
2023/12/01 07:46:10;;;;;;;31.47;23.83;;;;;;;;;;5041450;28;20222;-88
2023/12/01 07:48:36;;;;;;;34.57;29.57;;;;;;;;;;5048583;28;20210;-88
2023/12/01 07:51:06;;;;;;;32.30;25.63;;;;;;;;;;5049269;28;20206;-88
2023/12/01 07:53:33;;;;;;;69.37;48.00;;;;;;;;;;5035166;28;20217;-88
2023/12/01 07:56:00;;;;;;;80.63;53.90;;;;;;;;;;5049194;28;20206;-88
2023/12/01 07:58:27;;;;;;;51.87;38.07;;;;;;;;;;5036193;28;20273;-87
2023/12/01 08:00:55;;;;;;;21.10;17.77;;;;;;;;;;5035688;28;20684;-88
2023/12/01 08:03:22;;;;;;;14.17;12.77;;;;;;;;;;5028859;28;20210;-88
2023/12/01 08:05:49;;;;;;;11.90;10.70;;;;;;;;;;5028763;28;20685;-88
2023/12/01 08:08:18;;;;;;;12.63;11.33;;;;;;;;;;5023353;28;20652;-88
2023/12/01 08:10:44;;;;;;;11.63;10.53;;;;;;;;;;5035432;28;20230;-88
2023/12/01 08:13:11;;;;;;;13.57;12.13;;;;;;;;;;5048289;28;20210;-89
2023/12/01 08:15:38;;;;;;;41.90;28.20;;;;;;;;;;5048045;28;20220;-86
2023/12/01 08:18:05;;;;;;;35.17;26.73;;;;;;;;;;5051516;28;20206;-88
2023/12/01 08:20:32;;;;;;;13.90;11.47;;;;;;;;;;5038480;28;20596;-88
2023/12/01 08:23:01;;;;;;;17.97;12.83;;;;;;;;;;5052416;28;20206;-88
2023/12/01 08:25:29;;;;;;;7.93;6.97;;;;;;;;;;5038664;28;20211;-87
2023/12/01 08:27:56;;;;;;;10.40;9.40;;;;;;;;;;5034180;27;20246;-89
2023/12/01 08:30:23;;;;;;;13.57;10.37;;;;;;;;;;5030302;28;20214;-88
2023/12/01 08:32:51;;;;;;;15.57;11.90;;;;;;;;;;5042738;28;20207;-88
2023/12/01 08:35:18;;;;;;;18.17;13.20;;;;;;;;;;5045131;28;20233;-87
2023/12/01 08:37:45;;;;;;;23.10;15.57;;;;;;;;;;5032232;28;20203;-88
2023/12/01 08:40:13;;;;;;;25.87;16.63;;;;;;;;;;5031566;28;20685;-88
2023/12/01 08:42:42;;;;;;;13.23;11.53;;;;;;;;;;5031644;28;20210;-88
2023/12/01 08:45:10;;;;;;;22.03;15.90;;;;;;;;;;5048704;28;20198;-88
2023/12/01 08:47:38;;;;;;;12.50;10.87;;;;;;;;;;5051003;28;20225;-87
2023/12/01 08:50:07;;;;;;;12.57;10.37;;;;;;;;;;5038411;28;20565;-87
2023/12/01 08:52:34;;;;;;;10.27;9.27;;;;;;;;;;5051161;28;20216;-87
2023/12/01 08:55:01;;;;;;;11.93;9.53;;;;;;;;;;5038246;28;20217;-87
2023/12/01 08:57:27;;;;;;;11.07;9.03;;;;;;;;;;5039669;28;20221;-88
2023/12/01 08:59:56;;;;;;;10.57;8.53;;;;;;;;;;5049934;28;20206;-88
2023/12/01 09:02:23;;;;;;;8.40;7.60;;;;;;;;;;5051516;28;20210;-87
2023/12/01 09:04:50;;;;;;;7.40;6.63;;;;;;;;;;5051578;28;20205;-87
2023/12/01 09:07:16;;;;;;;7.70;5.33;;;;;;;;;;5051470;28;20244;-87
2023/12/01 09:09:43;;;;;;;9.53;6.73;;;;;;;;;;5044810;28;20581;-87
2023/12/01 09:12:10;;;;;;;5.40;4.90;;;;;;;;;;5043348;28;20625;-87
2023/12/01 09:14:37;;;;;;;5.90;5.30;;;;;;;;;;5044675;28;20203;-86
2023/12/01 09:17:06;;;;;;;6.73;6.03;;;;;;;;;;5043833;28;20218;-86
2023/12/01 09:19:33;;;;;;;6.50;5.50;;;;;;;;;;5044874;28;20583;-87
2023/12/01 09:22:01;;;;;;;6.03;5.40;;;;;;;;;;5044137;28;20209;-86
2023/12/01 09:24:27;;;;;;;5.87;5.27;;;;;;;;;;5043827;28;20203;-87
2023/12/01 09:26:54;;;;;;;5.17;4.67;;;;;;;;;;5030424;28;20303;-85
2023/12/01 09:29:21;;;;;;;6.63;4.30;;;;;;;;;;5036873;28;20210;-86
2023/12/01 09:31:48;;;;;;;9.50;6.60;;;;;;;;;;5049893;28;20210;-86
2023/12/01 09:34:16;;;;;;;7.97;7.17;;;;;;;;;;5038169;28;20212;-86
2023/12/01 09:36:43;;;;;;;10.93;7.53;;;;;;;;;;5048782;28;20210;-86
2023/12/01 09:39:10;;;;;;;7.17;6.10;;;;;;;;;;5038262;28;20209;-87
2023/12/01 09:41:38;;;;;;;10.03;8.37;;;;;;;;;;5048678;28;20202;-87
2023/12/01 09:44:05;;;;;;;10.40;7.50;;;;;;;;;;5039329;28;20203;-87
2023/12/01 09:46:34;;;;;;;28.67;19.47;;;;;;;;;;5049861;28;20222;-87
2023/12/01 09:49:04;;;;;;;37.73;22.73;;;;;;;;;;5050338;28;20208;-86
2023/12/01 09:51:36;;;;;;;58.03;37.53;;;;;;;;;;5036520;28;20339;-86
2023/12/01 09:54:03;;;;;;;46.57;29.03;;;;;;;;;;5050637;28;20779;-87
2023/12/01 09:56:31;;;;;;;35.27;22.00;;;;;;;;;;5049591;28;20250;-87
2023/12/01 09:58:59;;;;;;;22.17;15.53;;;;;;;;;;5050343;28;20660;-88
2023/12/01 10:01:26;;;;;;;13.00;9.73;;;;;;;;;;5046183;28;20217;-88
2023/12/01 10:03:53;;;;;;;10.60;7.30;;;;;;;;;;5041306;28;20210;-87
2023/12/01 10:06:20;;;;;;;10.23;8.13;;;;;;;;;;5036712;28;20214;-87
2023/12/01 10:08:51;;;;;;;16.57;12.27;;;;;;;;;;5040008;28;20630;-87
2023/12/01 10:11:21;;;;;;;9.67;8.40;;;;;;;;;;5037765;28;20238;-87
2023/12/01 10:13:49;;;;;;;12.97;10.90;;;;;;;;;;5023149;28;20251;-87
2023/12/01 10:16:16;;;;;;;10.03;8.90;;;;;;;;;;5049602;28;20206;-88
2023/12/01 10:18:57;;;;;;;33.50;18.57;;;;;;;;;;5037204;28;20207;-87
2023/12/01 10:21:41;;;;;;;45.27;25.37;;;;;;;;;;5018106;28;20260;-88
2023/12/01 10:24:15;;;;;;;55.57;32.47;;;;;;;;;;5047601;28;20206;-86
2023/12/01 10:26:43;;;;;;;29.50;20.10;;;;;;;;;;5037974;28;20241;-87
2023/12/01 10:29:24;;;;;;;12.60;10.43;;;;;;;;;;5048647;28;20636;-87
2023/12/01 10:31:51;;;;;;;17.87;11.07;;;;;;;;;;5049345;28;20758;-87
2023/12/01 10:34:19;;;;;;;22.70;17.47;;;;;;;;;;5049959;28;20677;-87
2023/12/01 10:36:48;;;;;;;22.60;18.57;;;;;;;;;;5049195;28;20613;-87
2023/12/01 10:39:17;;;;;;;17.70;15.63;;;;;;;;;;5049685;28;20205;-86
2023/12/01 10:41:45;;;;;;;13.37;12.00;;;;;;;;;;5034440;28;20203;-87
2023/12/01 10:44:15;;;;;;;11.40;10.03;;;;;;;;;;5049706;28;20210;-88
2023/12/01 10:46:42;;;;;;;11.73;9.07;;;;;;;;;;5033066;28;20215;-87
2023/12/01 10:49:08;;;;;;;11.00;9.90;;;;;;;;;;5038852;28;20209;-87
2023/12/01 10:51:37;;;;;;;10.73;9.63;;;;;;;;;;5049456;28;20600;-87
2023/12/01 10:54:05;;;;;;;11.50;9.07;;;;;;;;;;5039767;28;20223;-87
2023/12/01 10:56:35;;;;;;;11.63;8.57;;;;;;;;;;5045952;28;20202;-87
2023/12/01 10:59:02;;;;;;;13.03;8.27;;;;;;;;;;5039081;28;20206;-87
2023/12/01 11:01:30;;;;;;;14.30;10.53;;;;;;;;;;5046307;28;20756;-87
2023/12/01 11:03:58;;;;;;;12.17;8.93;;;;;;;;;;5049385;28;20216;-86
2023/12/01 11:06:34;;;;;;;13.13;8.57;;;;;;;;;;5044189;28;20633;-87
2023/12/01 11:09:11;;;;;;;11.80;9.07;;;;;;;;;;5042036;28;20212;-87
2023/12/01 11:11:46;;;;;;;10.20;8.53;;;;;;;;;;5048724;28;20229;-87
2023/12/01 11:14:17;;;;;;;10.33;7.70;;;;;;;;;;5046518;28;20209;-88
2023/12/01 11:16:44;;;;;;;8.37;7.40;;;;;;;;;;5039381;27;20216;-87
2023/12/01 11:19:11;;;;;;;13.43;9.30;;;;;;;;;;5048347;28;20215;-87
2023/12/01 11:21:41;;;;;;;8.93;8.03;;;;;;;;;;5048603;28;20209;-87
2023/12/01 11:24:25;;;;;;;6.40;5.73;;;;;;;;;;5044514;28;20297;-88
2023/12/01 11:26:54;;;;;;;8.40;7.60;;;;;;;;;;5028864;28;20591;-87
2023/12/01 11:29:28;;;;;;;11.17;7.73;;;;;;;;;;5035439;28;20255;-86
2023/12/01 11:31:57;;;;;;;8.83;6.30;;;;;;;;;;5047422;28;20209;-88
2023/12/01 11:34:25;;;;;;;7.73;6.40;;;;;;;;;;5037295;28;20297;-87
2023/12/01 11:36:53;;;;;;;9.07;7.30;;;;;;;;;;5049216;28;20210;-87
2023/12/01 11:39:23;;;;;;;9.17;7.10;;;;;;;;;;5048543;28;20205;-86
2023/12/01 11:41:55;;;;;;;10.93;6.70;;;;;;;;;;5044989;28;20673;-87
2023/12/01 11:44:24;;;;;;;9.93;6.53;;;;;;;;;;5039391;28;20210;-87
2023/12/01 11:46:55;;;;;;;9.50;6.37;;;;;;;;;;5047793;28;20703;-87
2023/12/01 11:49:24;;;;;;;7.80;5.43;;;;;;;;;;5048688;28;20228;-87
2023/12/01 11:51:51;;;;;;;7.57;6.50;;;;;;;;;;5035036;28;20204;-87
2023/12/01 11:54:19;;;;;;;12.17;7.87;;;;;;;;;;5047656;28;20209;-86
2023/12/01 11:56:51;;;;;;;8.47;6.03;;;;;;;;;;5048192;28;20213;-87
2023/12/01 11:59:20;;;;;;;8.07;6.60;;;;;;;;;;5047597;28;20646;-86
2023/12/01 12:01:47;;;;;;;6.63;5.93;;;;;;;;;;5048137;28;20213;-86
2023/12/01 12:04:16;;;;;;;10.60;7.40;;;;;;;;;;5034458;28;20695;-87
2023/12/01 12:06:43;;;;;;;7.20;6.50;;;;;;;;;;5048458;28;20276;-87
2023/12/01 12:09:17;;;;;;;9.50;6.10;;;;;;;;;;5046846;28;20299;-87
2023/12/01 12:11:44;;;;;;;11.27;7.43;;;;;;;;;;5036716;28;20345;-87
2023/12/01 12:14:13;;;;;;;10.93;7.17;;;;;;;;;;5047205;28;20211;-86
2023/12/01 12:16:41;;;;;;;12.87;9.17;;;;;;;;;;5048000;28;20201;-85
2023/12/01 12:19:08;;;;;;;15.77;9.30;;;;;;;;;;5047816;28;20561;-86
2023/12/01 12:21:36;;;;;;;12.27;9.03;;;;;;;;;;5037837;28;20243;-86
2023/12/01 12:24:04;;;;;;;11.97;10.23;;;;;;;;;;5044318;28;20209;-86
2023/12/01 12:26:31;;;;;;;13.80;10.13;;;;;;;;;;5047831;28;20209;-87
2023/12/01 12:29:00;;;;;;;14.67;9.20;;;;;;;;;;5047611;28;20578;-86
2023/12/01 12:31:29;;;;;;;70.67;40.70;;;;;;;;;;5036541;28;20209;-85
2023/12/01 12:33:58;;;;;;;21.57;16.73;;;;;;;;;;5032366;28;20695;-88
2023/12/01 12:36:27;;;;;;;75.40;46.40;;;;;;;;;;5047550;28;20219;-87
2023/12/01 12:38:54;;;;;;;24.37;17.87;;;;;;;;;;5048226;28;20271;-87
2023/12/01 12:41:25;;;;;;;31.70;21.47;;;;;;;;;;5035465;28;20217;-87
2023/12/01 12:43:53;;;;;;;18.80;15.00;;;;;;;;;;5047588;28;20232;-86
2023/12/01 12:46:20;;;;;;;18.00;14.90;;;;;;;;;;5034486;28;20217;-88
2023/12/01 12:48:47;;;;;;;15.80;14.20;;;;;;;;;;5047621;28;20701;-86
2023/12/01 12:51:17;;;;;;;17.77;14.03;;;;;;;;;;5047724;28;20215;-87
2023/12/01 12:53:44;;;;;;;18.67;13.87;;;;;;;;;;5032224;28;20235;-87
2023/12/01 12:56:15;;;;;;;16.13;12.43;;;;;;;;;;5036048;28;20219;-87
2023/12/01 12:58:42;;;;;;;14.40;12.13;;;;;;;;;;5036066;28;20596;-87
2023/12/01 13:01:11;;;;;;;18.97;15.40;;;;;;;;;;5047584;28;20231;-87
2023/12/01 13:03:37;;;;;;;14.27;11.70;;;;;;;;;;5038891;28;20209;-87
2023/12/01 13:06:05;;;;;;;13.17;10.83;;;;;;;;;;5047914;28;20589;-87
2023/12/01 13:08:34;;;;;;;19.60;11.90;;;;;;;;;;5040830;28;20225;-88
2023/12/01 13:11:02;;;;;;;17.73;14.27;;;;;;;;;;5048001;28;20228;-88
2023/12/01 13:13:29;;;;;;;16.13;12.30;;;;;;;;;;5040979;28;20211;-88
2023/12/01 13:15:56;;;;;;;20.13;15.20;;;;;;;;;;5044769;28;20671;-88
2023/12/01 13:18:22;;;;;;;17.20;13.30;;;;;;;;;;5041946;28;20209;-88
2023/12/01 13:20:52;;;;;;;14.33;11.23;;;;;;;;;;5050550;28;20212;-89
2023/12/01 13:23:19;;;;;;;21.60;14.63;;;;;;;;;;5051329;28;20231;-88
2023/12/01 13:25:48;;;;;;;16.10;10.53;;;;;;;;;;5033403;27;20214;-88
2023/12/01 13:28:15;;;;;;;12.00;10.43;;;;;;;;;;5042775;28;20222;-88
2023/12/01 13:30:42;;;;;;;17.50;14.87;;;;;;;;;;5050356;28;20684;-88
2023/12/01 13:33:09;;;;;;;20.67;13.70;;;;;;;;;;5050903;28;20326;-88
2023/12/01 13:35:36;;;;;;;16.77;13.00;;;;;;;;;;5050691;28;20206;-87
2023/12/01 13:38:04;;;;;;;19.30;15.37;;;;;;;;;;5051012;28;20213;-89
2023/12/01 13:40:30;;;;;;;21.70;16.93;;;;;;;;;;5044785;28;20214;-88
2023/12/01 13:42:59;;;;;;;26.27;16.10;;;;;;;;;;5042624;28;20202;-88
2023/12/01 13:45:26;;;;;;;36.67;27.30;;;;;;;;;;5037300;28;20210;-87
2023/12/01 13:47:53;;;;;;;17.63;14.83;;;;;;;;;;5050889;28;20275;-88
2023/12/01 13:50:20;;;;;;;15.30;13.73;;;;;;;;;;5037140;28;20202;-88
2023/12/01 13:52:47;;;;;;;15.47;10.43;;;;;;;;;;5037821;28;20225;-88
2023/12/01 13:55:14;;;;;;;16.60;12.13;;;;;;;;;;5036390;28;20210;-88
2023/12/01 13:57:41;;;;;;;15.77;11.53;;;;;;;;;;5050228;28;20205;-88
2023/12/01 14:00:12;;;;;;;19.80;14.27;;;;;;;;;;5050408;28;20206;-89
2023/12/01 14:02:39;;;;;;;25.20;15.43;;;;;;;;;;5049807;28;20636;-88
2023/12/01 14:05:07;;;;;;;27.97;19.93;;;;;;;;;;5037971;28;20217;-88
2023/12/01 14:07:33;;;;;;;18.37;16.27;;;;;;;;;;5049356;28;20205;-88
2023/12/01 14:10:00;;;;;;;53.97;32.20;;;;;;;;;;5038693;28;20209;-88
2023/12/01 14:12:27;;;;;;;18.10;13.37;;;;;;;;;;5036755;28;20696;-88
2023/12/01 14:14:54;;;;;;;15.13;12.67;;;;;;;;;;5041645;28;20210;-88
2023/12/01 14:17:22;;;;;;;271.93;149.27;;;;;;;;;;5031998;28;20214;-88
2023/12/01 14:19:49;;;;;;;89.50;53.27;;;;;;;;;;5041923;28;20214;-88
2023/12/01 14:22:15;;;;;;;31.10;20.93;;;;;;;;;;5045893;28;20214;-88
2023/12/01 14:24:42;;;;;;;25.50;13.70;;;;;;;;;;5041275;28;20593;-88
2023/12/01 14:27:09;;;;;;;20.93;14.20;;;;;;;;;;5043274;28;20744;-87
2023/12/01 14:29:36;;;;;;;25.70;19.10;;;;;;;;;;5030012;28;20279;-88
2023/12/01 14:32:03;;;;;;;32.20;19.33;;;;;;;;;;5044509;28;21598;-88